DECPP EDDN-EDDN

Flight info

Callsign DECPP
Flight time 0h 3m
Altitude
Route
Aircraft EDGE

Departure

Time 2026-04-27 11:28
Airport Nuremberg Airport (EDDN)

Arrival

Time 2026-04-27 11:32
Airport Nuremberg Airport (EDDN)
Time Latitude Longitude Altitude Speed Heading
2026-04-27 11:28 49.51655 11.06503 3142 ft 48 kts
2026-04-27 11:28 49.51234 11.06504 2101 ft 127 kts 111°
2026-04-27 11:28 49.51067 11.08202 1941 ft 199 kts 106°
2026-04-27 11:28 49.51204 11.09740 1831 ft 216 kts 33°
2026-04-27 11:29 49.51235 11.11949 2030 ft 221 kts 105°
2026-04-27 11:29 49.50898 11.13593 2867 ft 203 kts 113°
2026-04-27 11:29 49.49507 11.13210 1701 ft 188 kts 202°
2026-04-27 11:29 49.49559 11.11475 1332 ft 185 kts 277°
2026-04-27 11:30 49.49663 11.09929 1111 ft 86 kts 281°
2026-04-27 11:30 49.49751 11.09024 1031 ft 70 kts 283°
2026-04-27 11:30 49.49863 11.07979 1036 ft 159 kts 281°
2026-04-27 11:30 49.50064 11.05967 1198 ft 136 kts 265°
2026-04-27 11:31 49.49270 11.06374 2599 ft 184 kts 185°
2026-04-27 11:31 49.48419 11.06020 3865 ft 130 kts 316°
2026-04-27 11:31 49.48636 11.06091 2890 ft 77 kts 185°
2026-04-27 11:31 49.48342 11.06975 3614 ft 47 kts 41°
2026-04-27 11:32 49.48328 11.07077 2195 ft 3 kts 346°
2026-04-27 11:32 49.48083 11.06650 1854 ft 107 kts 137°
2026-04-27 11:32 49.47776 11.08251 2078 ft 194 kts 98°
2026-04-27 11:32 49.47570 11.10365 2097 ft 189 kts 102°
2026-04-27 11:33 49.47573 11.12215 2054 ft 162 kts 85°
2026-04-27 11:33 49.47327 11.12422 1999 ft 138 kts 339°
2026-04-27 11:33 49.47589 11.13539 1756 ft 159 kts 71°
2026-04-27 11:33 49.48830 11.13883 1677 ft 198 kts
2026-04-27 11:34 49.49084 11.12859 1908 ft 106 kts 304°
2026-04-27 11:34 49.49335 11.12015 1524 ft 82 kts 294°
2026-04-27 11:34 49.49511 11.11181 1318 ft 82 kts 285°
2026-04-27 11:34 49.49627 11.10235 1147 ft 96 kts 282°
2026-04-27 11:35 49.49709 11.09398 1037 ft 63 kts 281°
2026-04-27 11:35 49.49784 11.08621 1030 ft 107 kts 282°
2026-04-27 11:35 49.50059 11.07690 1517 ft 103 kts
2026-04-27 11:35 49.50767 11.07814 2039 ft 111 kts 10°
2026-04-27 11:36 49.51654 11.07916 2178 ft 143 kts
2026-04-27 11:36 49.52353 11.07996 3605 ft 114 kts 12°
2026-04-27 11:36 49.52382 11.07725 3683 ft 23 kts 294°
2026-04-27 11:36 49.52132 11.07669 3197 ft 133 kts 300°
2026-04-27 11:37 49.52245 11.07358 2363 ft 20 kts 121°
2026-04-27 11:37 49.51995 11.07873 1979 ft 108 kts 98°
2026-04-27 11:37 49.51845 11.09642 2018 ft 201 kts 97°
2026-04-27 11:37 49.51621 11.11843 2370 ft 214 kts 100°
2026-04-27 11:38 49.51346 11.14125 2774 ft 218 kts 103°
2026-04-27 11:38 49.50829 11.16390 2763 ft 232 kts 128°
2026-04-27 11:38 49.49376 11.16295 2049 ft 258 kts 210°
2026-04-27 11:38 49.49327 11.14081 1988 ft 251 kts 282°
2026-04-27 11:39 49.49496 11.11918 1461 ft 155 kts 275°
2026-04-27 11:39 49.49623 11.10347 1184 ft 139 kts 281°
2026-04-27 11:39 49.49715 11.09349 1036 ft 68 kts 282°
2026-04-27 11:39 49.49807 11.08508 1029 ft 139 kts 281°
2026-04-27 11:40 49.49996 11.06594 1031 ft 209 kts 280°
2026-04-27 11:40 49.49441 11.05726 2314 ft 178 kts 201°
2026-04-27 11:40 49.48091 11.04852 2224 ft 223 kts 205°
2026-04-27 11:40 49.47774 11.06809 2862 ft 203 kts 111°
2026-04-27 11:41 49.47594 11.07554 2947 ft 188 kts 154°
2026-04-27 11:41 49.47725 11.09209 2885 ft 164 kts 81°
2026-04-27 11:41 49.47914 11.10906 2536 ft 160 kts 80°
2026-04-27 11:41 49.48085 11.12602 2238 ft 160 kts 81°
2026-04-27 11:42 49.49068 11.13115 1341 ft 234 kts
2026-04-27 11:42 49.49504 11.11367 1313 ft 227 kts 287°
2026-04-27 11:42 49.49736 11.09192 1038 ft 153 kts 280°
2026-04-27 11:42 49.49851 11.07987 1031 ft 143 kts 281°
2026-04-27 11:43 49.50226 11.06397 1312 ft 176 kts 349°
2026-04-27 11:43 49.51128 11.05798 2127 ft 137 kts 166°
2026-04-27 11:43 49.51178 11.05854 2189 ft 127 kts 173°
2026-04-27 11:43 49.51351 11.05825 2268 ft 53 kts 55°
2026-04-27 11:44 49.51836 11.06559 2928 ft 159 kts 43°
2026-04-27 11:44 49.52365 11.07267 2789 ft 106 kts
2026-04-27 11:44 49.52492 11.07504 3363 ft 84 kts 176°
2026-04-27 11:44 49.52088 11.07109 2585 ft 152 kts 272°
2026-04-27 11:45 49.52137 11.07715 1868 ft 179 kts 103°
2026-04-27 11:45 49.51861 11.09049 2069 ft 203 kts 112°
2026-04-27 11:45 49.50992 11.11763 2451 ft 224 kts 121°
2026-04-27 11:45 49.49986 11.12767 2931 ft 210 kts 207°
2026-04-27 11:46 49.49586 11.11031 1329 ft 213 kts 278°
2026-04-27 11:46 49.49734 11.09238 1038 ft 107 kts 279°
2026-04-27 11:46 49.49788 11.08649 1022 ft 18 kts 265°
2026-04-27 11:46 49.49749 11.08569 1022 ft 9 kts 192°
2026-04-27 11:47 49.49696 11.08547 1024 ft 1 kts 246°
2026-04-27 11:47 49.49695 11.08545 1024 ft 0 kts 246°
2026-04-27 11:51 49.49677 11.08506 1023 ft 11 kts 232°
2026-04-27 11:51 49.49668 11.08489 1023 ft 0 kts 233°
2026-04-27 11:51 49.49620 11.08167 1025 ft 26 kts 279°
2026-04-27 11:52 49.49646 11.07905 1023 ft 27 kts 281°
2026-04-27 11:52 49.49693 11.07674 1025 ft 26 kts 278°
2026-04-27 11:52 49.49722 11.07374 1021 ft 25 kts 279°
2026-04-27 11:52 49.49645 11.07218 1019 ft 26 kts 186°
2026-04-27 11:53 49.49507 11.07137 1018 ft 17 kts 279°
2026-04-27 11:53 49.49481 11.06929 1018 ft 16 kts 160°
2026-04-27 11:53 49.49460 11.06958 1017 ft 0 kts 73°